createdAt,value
2019-06-01T00:01:48.656Z,98394.30
2019-06-01T00:04:17.559Z,98394.16
2019-06-01T00:06:46.972Z,98394.63
2019-06-01T00:09:15.822Z,98403.41
2019-06-01T00:11:45.578Z,98400.53
2019-06-01T00:14:14.382Z,98392.96
2019-06-01T00:16:44.012Z,98388.84
2019-06-01T00:19:16.388Z,98394.98
2019-06-01T00:21:45.518Z,98395.45
2019-06-01T00:24:16.439Z,98396.78
2019-06-01T00:26:45.891Z,98389.69
2019-06-01T00:29:14.706Z,98385.72
2019-06-01T00:31:45.173Z,98377.67
2019-06-01T00:34:14.093Z,98375.98
2019-06-01T00:36:43.535Z,98368.31
2019-06-01T00:39:12.480Z,98370.59
2019-06-01T00:41:41.958Z,98372.52
2019-06-01T00:44:10.884Z,98370.50
2019-06-01T00:46:40.049Z,98366.17
2019-06-01T00:49:11.118Z,98364.72
2019-06-01T00:51:40.084Z,98361.38
2019-06-01T00:54:13.233Z,98362.09
2019-06-01T00:56:43.398Z,98360.56
2019-06-01T00:59:12.491Z,98364.77
2019-06-01T01:01:41.314Z,98364.19
2019-06-01T01:04:10.165Z,98360.92
2019-06-01T01:06:39.075Z,98364.91
2019-06-01T01:09:09.300Z,98364.44
2019-06-01T01:11:38.156Z,98365.29
2019-06-01T01:14:12.239Z,98364.45
2019-06-01T01:16:41.196Z,98362.66
2019-06-01T01:19:10.029Z,98373.56
2019-06-01T01:21:38.873Z,98374.89
2019-06-01T01:24:07.707Z,98367.81
2019-06-01T01:26:36.439Z,98376.22
2019-06-01T01:29:05.367Z,98370.82
2019-06-01T01:31:34.192Z,98372.98
2019-06-01T01:34:05.271Z,98374.61
2019-06-01T01:36:34.190Z,98373.28
2019-06-01T01:39:03.404Z,98371.84
2019-06-01T01:41:32.233Z,98373.86
2019-06-01T01:44:01.042Z,98365.57
2019-06-01T01:46:32.039Z,98361.13
2019-06-01T01:49:00.846Z,98364.97
2019-06-01T01:51:29.759Z,98364.85
2019-06-01T01:53:58.862Z,98367.34
2019-06-01T01:56:30.012Z,98368.91
2019-06-01T01:58:58.840Z,98369.49
2019-06-01T02:01:27.690Z,98370.70
2019-06-01T02:03:57.374Z,98370.91
2019-06-01T02:06:29.001Z,98366.83
2019-06-01T02:08:57.222Z,98367.05
2019-06-01T02:11:26.544Z,98359.48
2019-06-01T02:13:55.669Z,98359.25
2019-06-01T02:16:26.772Z,98362.69
2019-06-01T02:18:57.179Z,98366.41
2019-06-01T02:21:26.452Z,98362.07
2019-06-01T02:23:55.185Z,98362.44
2019-06-01T02:26:23.981Z,98363.97
2019-06-01T02:28:53.191Z,98360.26
2019-06-01T02:31:40.012Z,98355.09
2019-06-01T02:33:53.760Z,98355.44
2019-06-01T02:36:22.840Z,98352.91
2019-06-01T02:38:51.567Z,98351.33
2019-06-01T02:44:49.517Z,98350.83
2019-06-01T02:47:18.398Z,98358.61
2019-06-01T02:49:47.212Z,98357.50
2019-06-01T02:52:16.475Z,98358.45
2019-06-01T02:54:45.381Z,98357.74
2019-06-01T02:57:14.217Z,98360.48
2019-06-01T02:59:43.545Z,98366.81
2019-06-01T03:02:14.975Z,98361.67
2019-06-01T03:04:43.478Z,98367.99
2019-06-01T03:14:11.142Z,98367.67
2019-06-01T03:16:41.007Z,98368.48
2019-06-01T03:19:09.942Z,98367.63
2019-06-01T03:21:38.904Z,98368.34
2019-06-01T03:24:13.268Z,98366.66
2019-06-01T03:26:45.456Z,98368.55
2019-06-01T03:29:17.277Z,98372.73
2019-06-01T03:31:46.253Z,98365.88
2019-06-01T03:34:15.305Z,98368.14
2019-06-01T03:36:44.297Z,98370.78
2019-06-01T03:39:13.322Z,98365.27
2019-06-01T03:41:42.539Z,98371.12
2019-06-01T03:44:12.822Z,98367.64
2019-06-01T03:46:41.931Z,98372.80
2019-06-01T03:49:11.953Z,98373.28
2019-06-01T03:51:41.283Z,98365.48
2019-06-01T03:54:10.498Z,98371.48
2019-06-01T03:56:39.925Z,98374.12
2019-06-01T03:59:09.435Z,98377.13
2019-06-01T04:01:38.400Z,98378.34
2019-06-01T04:04:11.271Z,98373.41
2019-06-01T04:06:40.232Z,98371.52
2019-06-01T04:09:16.106Z,98374.42
2019-06-01T04:11:46.956Z,98373.34
2019-06-01T04:14:15.919Z,98372.67
2019-06-01T04:16:44.699Z,98371.48
2019-06-01T04:19:13.617Z,98361.89
2019-06-01T04:21:42.603Z,98366.61
2019-06-01T04:24:12.344Z,98367.25
2019-06-01T04:26:41.420Z,98362.14
2019-06-01T04:29:12.603Z,98363.22
2019-06-01T04:31:43.540Z,98359.91
2019-06-01T04:34:18.255Z,98364.83
2019-06-01T04:36:47.316Z,98364.48
2019-06-01T04:39:16.212Z,98359.84
2019-06-01T04:41:45.126Z,98362.61
2019-06-01T04:44:14.458Z,98366.11
2019-06-01T04:46:45.225Z,98362.28
2019-06-01T04:49:15.007Z,98364.09
2019-06-01T04:51:44.265Z,98362.83
2019-06-01T04:54:14.479Z,98362.47
2019-06-01T04:56:43.961Z,98369.09
2019-06-01T04:59:13.053Z,98372.80
2019-06-01T05:01:41.982Z,98376.06
2019-06-01T05:04:11.148Z,98372.48
2019-06-01T05:06:40.202Z,98379.83
2019-06-01T05:09:11.353Z,98374.69
2019-06-01T05:11:49.755Z,98370.37
2019-06-01T05:14:20.802Z,98368.73
2019-06-01T05:17:06.206Z,98370.05
2019-06-01T05:19:36.095Z,98372.51
2019-06-01T05:22:06.365Z,98376.10
2019-06-01T05:24:35.290Z,98372.02
2019-06-01T05:27:04.547Z,98360.61
2019-06-01T05:29:44.260Z,98367.67
2019-06-01T05:32:13.066Z,98371.64
2019-06-01T05:34:41.926Z,98370.15
2019-06-01T05:37:12.240Z,98366.30
2019-06-01T05:39:41.282Z,98368.07
2019-06-01T05:42:10.643Z,98367.97
2019-06-01T05:44:39.900Z,98357.86
2019-06-01T05:47:16.259Z,98362.28
2019-06-01T05:49:52.034Z,98363.97
2019-06-01T05:52:20.960Z,98362.14
2019-06-01T05:54:49.798Z,98356.75
2019-06-01T05:57:20.598Z,98353.52
2019-06-01T05:59:49.444Z,98355.69
2019-06-01T06:02:19.591Z,98358.81
2019-06-01T06:04:48.487Z,98358.31
2019-06-01T06:07:17.457Z,98367.42
2019-06-01T06:09:46.324Z,98357.97
2019-06-01T06:12:15.517Z,98363.74
2019-06-01T06:15:00.823Z,98356.86
2019-06-01T06:17:30.737Z,98367.89
2019-06-01T06:20:02.791Z,98359.84
2019-06-01T06:22:31.780Z,98374.44
2019-06-01T06:25:02.743Z,98373.39
2019-06-01T06:27:31.782Z,98378.28
2019-06-01T06:30:01.151Z,98378.91
2019-06-01T06:32:44.572Z,98378.81
2019-06-01T06:35:17.369Z,98395.59
2019-06-01T06:37:46.433Z,98394.10
2019-06-01T06:40:15.969Z,98384.78
2019-06-01T06:42:45.096Z,98392.70
2019-06-01T06:45:14.581Z,98391.55
2019-06-01T06:47:45.337Z,98388.14
2019-06-01T06:50:17.520Z,98391.96
2019-06-01T06:52:46.641Z,98393.77
2019-06-01T06:55:15.983Z,98396.31
2019-06-01T06:57:45.944Z,98396.66
2019-06-01T07:00:16.294Z,98391.83
2019-06-01T07:02:46.089Z,98393.59
2019-06-01T07:05:17.214Z,98392.19
2019-06-01T07:07:46.403Z,98393.61
2019-06-01T07:10:16.516Z,98392.88
2019-06-01T07:12:45.508Z,98390.27
2019-06-01T07:15:15.950Z,98402.26
2019-06-01T07:17:46.861Z,98399.28
2019-06-01T07:20:16.020Z,98404.36
2019-06-01T07:22:45.379Z,98408.25
2019-06-01T07:25:14.598Z,98404.95
2019-06-01T07:27:43.944Z,98410.82
2019-06-01T07:30:12.969Z,98409.63
2019-06-01T07:32:41.987Z,98406.47
2019-06-01T07:35:11.091Z,98405.33
2019-06-01T07:37:42.599Z,98403.99
2019-06-01T07:40:13.708Z,98394.95
2019-06-01T07:42:42.676Z,98398.64
2019-06-01T07:45:11.844Z,98385.87
2019-06-01T07:47:40.737Z,98383.55
2019-06-01T07:50:09.841Z,98389.77
2019-06-01T07:52:43.018Z,98381.20
2019-06-01T07:55:11.919Z,98380.16
2019-06-01T07:57:43.538Z,98377.30
2019-06-01T08:00:11.695Z,98373.84
2019-06-01T08:02:41.757Z,98378.70
2019-06-01T08:05:16.695Z,98376.93
2019-06-01T08:07:48.432Z,98372.70
2019-06-01T08:10:17.646Z,98377.73
2019-06-01T08:12:46.624Z,98378.08
2019-06-01T08:15:15.749Z,98370.16
2019-06-01T08:17:44.854Z,98369.77
2019-06-01T08:20:14.090Z,98366.30
2019-06-01T08:22:43.259Z,98358.91
2019-06-01T08:25:12.190Z,98365.86
2019-06-01T08:27:41.251Z,98358.95
2019-06-01T08:30:15.695Z,98358.12
2019-06-01T08:32:45.076Z,98357.67
2019-06-01T08:35:14.069Z,98355.28
2019-06-01T08:37:45.254Z,98346.56
2019-06-01T08:40:14.253Z,98350.71
2019-06-01T08:42:43.261Z,98348.72
2019-06-01T08:45:12.381Z,98346.59
2019-06-01T08:47:41.432Z,98348.30
2019-06-01T08:50:10.980Z,98347.22
2019-06-01T08:52:39.998Z,98340.78
2019-06-01T09:37:32.509Z,98319.08
2019-06-01T09:40:01.507Z,98322.17
2019-06-01T09:42:35.344Z,98315.09
2019-06-01T09:45:04.903Z,98316.13
2019-06-01T09:47:33.771Z,98314.56
2019-06-01T09:50:03.116Z,98325.00
2019-06-01T09:52:31.928Z,98314.17
2019-06-01T09:55:01.437Z,98324.02
2019-06-01T09:57:39.605Z,98312.93
2019-06-01T10:00:15.099Z,98316.78
2019-06-01T10:02:46.111Z,98311.81
2019-06-01T10:05:16.015Z,98306.02
2019-06-01T10:07:45.063Z,98312.24
2019-06-01T10:10:15.538Z,98308.65
2019-06-01T10:12:50.472Z,98310.42
2019-06-01T10:15:19.640Z,98297.59
2019-06-01T10:17:51.197Z,98300.76
2019-06-01T10:20:20.268Z,98299.59
2019-06-01T10:22:51.600Z,98296.98
2019-06-01T10:25:21.601Z,98298.95
2019-06-01T10:27:50.631Z,98293.95
2019-06-01T10:30:19.695Z,98290.90
2019-06-01T10:32:48.884Z,98292.23
2019-06-01T11:10:43.402Z,98251.22
2019-06-01T11:13:23.371Z,98251.80
2019-06-01T11:15:59.775Z,98255.37
2019-06-01T11:18:28.846Z,98258.36
2019-06-01T11:20:58.114Z,98248.80
2019-06-01T11:23:27.261Z,98249.45
2019-06-01T11:25:56.659Z,98250.70
2019-06-01T11:28:25.600Z,98244.25
2019-06-01T11:30:54.620Z,98240.00
2019-06-01T11:33:24.110Z,98239.86
2019-06-01T11:35:55.454Z,98242.13
2019-06-01T11:38:24.520Z,98237.02
2019-06-01T11:40:56.574Z,98234.83
2019-06-01T11:43:26.175Z,98227.06
2019-06-01T11:46:01.240Z,98224.97
2019-06-01T11:48:35.171Z,98213.71
2019-06-01T11:51:09.929Z,98218.59
2019-06-01T11:53:39.986Z,98211.92
2019-06-01T11:56:09.910Z,98213.78
2019-06-01T11:58:41.315Z,98206.61
2019-06-01T12:01:19.458Z,98203.38
2019-06-01T12:03:48.768Z,98204.20
2019-06-01T12:06:20.130Z,98197.52
2019-06-01T12:08:49.134Z,98196.82
2019-06-01T12:11:20.198Z,98198.27
2019-06-01T12:13:50.609Z,98200.17
2019-06-01T12:16:19.626Z,98186.63
2019-06-01T12:18:49.659Z,98192.70
2019-06-01T12:21:18.550Z,98186.11
2019-06-01T12:23:47.700Z,98182.78
2019-06-01T12:26:25.806Z,98174.99
2019-06-01T12:28:58.609Z,98172.63
2019-06-01T12:31:27.574Z,98169.81
2019-06-01T12:33:56.814Z,98169.36
2019-06-01T12:36:25.910Z,98173.91
2019-06-01T12:38:57.964Z,98170.06
2019-06-01T12:41:29.786Z,98164.64
2019-06-01T12:44:16.915Z,98168.95
2019-06-01T12:46:49.017Z,98163.15
2019-06-01T12:49:17.986Z,98158.54
2019-06-01T12:51:48.445Z,98153.19
2019-06-01T12:54:20.923Z,98157.13
2019-06-01T12:56:50.451Z,98155.17
2019-06-01T12:59:19.518Z,98151.17
2019-06-01T13:01:49.740Z,98150.98
2019-06-01T13:04:31.349Z,98140.50
2019-06-01T13:07:13.859Z,98147.45
2019-06-01T13:09:44.091Z,98134.32
2019-06-01T13:12:14.380Z,98140.34
2019-06-01T13:28:52.552Z,98113.61
2019-06-01T13:31:26.397Z,98110.23
2019-06-01T13:33:55.409Z,98106.53
2019-06-01T13:36:24.380Z,98101.28
2019-06-01T13:38:53.594Z,98098.38
2019-06-01T13:41:29.677Z,98098.38
2019-06-01T13:43:58.686Z,98100.17
2019-06-01T13:46:27.889Z,98093.06
2019-06-01T13:48:57.206Z,98087.25
2019-06-01T13:51:34.325Z,98090.29
2019-06-01T13:54:03.469Z,98082.34
2019-06-01T13:56:32.566Z,98084.54
2019-06-01T13:59:01.703Z,98086.77
2019-06-01T14:01:30.892Z,98086.20
2019-06-01T14:04:02.394Z,98083.45
2019-06-01T14:06:31.366Z,98083.27
2019-06-01T14:09:00.441Z,98079.26
2019-06-01T14:11:29.518Z,98080.59
2019-06-01T14:13:59.636Z,98080.14
2019-06-01T14:16:28.767Z,98077.36
2019-06-01T14:18:59.427Z,98075.20
2019-06-01T14:21:32.580Z,98067.00
2019-06-01T14:24:02.712Z,98063.84
2019-06-01T14:26:33.669Z,98057.97
2019-06-01T14:29:02.852Z,98055.79
2019-06-01T14:31:31.951Z,98061.16
2019-06-01T14:34:01.459Z,98055.28
2019-06-01T14:36:30.537Z,98056.62
2019-06-01T14:39:08.482Z,98050.31
2019-06-01T14:41:38.984Z,98048.97
2019-06-01T14:44:17.380Z,98047.74
2019-06-01T14:46:56.157Z,98045.59
2019-06-01T14:49:19.492Z,98045.05
2019-06-01T14:51:49.949Z,98046.80
2019-06-01T14:54:18.887Z,98043.53
2019-06-01T14:56:49.686Z,98046.60
2019-06-01T14:59:19.121Z,98046.64
2019-06-01T15:01:50.276Z,98040.70
2019-06-01T15:04:19.402Z,98038.55
2019-06-01T15:06:50.389Z,98033.15
2019-06-01T15:09:20.211Z,98035.56
2019-06-01T15:11:50.482Z,98033.02
2019-06-01T15:14:19.613Z,98029.50
2019-06-01T15:16:49.563Z,98029.97
2019-06-01T15:19:21.670Z,98034.44
2019-06-01T15:21:51.977Z,98029.30
2019-06-01T15:24:21.150Z,98021.03
2019-06-01T15:26:50.449Z,98019.57
2019-06-01T15:29:19.428Z,98019.37
2019-06-01T15:31:51.157Z,98017.33
2019-06-01T15:34:27.612Z,98011.33
2019-06-01T15:36:57.714Z,98016.93
2019-06-01T15:39:31.677Z,98015.69
2019-06-01T15:42:01.361Z,98011.86
2019-06-01T15:44:30.489Z,98011.35
2019-06-01T15:46:59.821Z,98005.80
2019-06-01T15:49:30.662Z,98005.58
2019-06-01T15:52:07.058Z,98001.67
2019-06-01T15:54:35.865Z,97996.31
2019-06-01T15:57:04.938Z,97996.41
2019-06-01T15:59:37.313Z,97994.52
2019-06-01T16:02:07.520Z,98002.58
2019-06-01T16:04:37.548Z,97995.83
2019-06-01T16:07:06.880Z,97992.47
2019-06-01T16:09:42.611Z,97991.34
2019-06-01T16:12:06.563Z,97988.24
2019-06-01T16:14:35.502Z,97985.97
2019-06-01T16:17:06.484Z,97985.23
2019-06-01T16:19:35.415Z,97984.47
2019-06-01T16:22:05.007Z,97980.53
2019-06-01T16:24:34.898Z,97976.02
2019-06-01T16:27:14.727Z,97981.91
2019-06-01T16:29:44.894Z,97968.92
2019-06-01T16:32:16.344Z,97971.86
2019-06-01T16:34:45.617Z,97966.39
2019-06-01T16:37:31.875Z,97960.75
2019-06-01T16:40:09.619Z,97957.78
2019-06-01T16:42:35.975Z,97953.20
2019-06-01T16:45:06.757Z,97959.28
2019-06-01T16:47:36.455Z,97959.37
2019-06-01T16:50:08.781Z,97954.28
2019-06-01T16:52:37.774Z,97955.02
2019-06-01T16:55:07.342Z,97954.00
2019-06-01T16:57:36.340Z,97948.05
2019-06-01T17:00:08.481Z,97949.91
2019-06-01T17:02:38.509Z,97953.42
2019-06-01T17:05:10.239Z,97957.07
2019-06-01T17:07:39.342Z,97951.28
2019-06-01T17:10:25.005Z,97954.16
2019-06-01T17:12:43.521Z,97960.45
2019-06-01T17:15:13.927Z,97954.21
2019-06-01T17:17:45.983Z,97960.80
2019-06-01T17:20:42.619Z,97959.30
2019-06-01T17:23:26.246Z,97950.46
2019-06-01T17:25:44.557Z,97953.69
2019-06-01T17:28:13.721Z,97952.67
2019-06-01T17:30:43.347Z,97958.04
2019-06-01T17:33:12.618Z,97948.00
2019-06-01T17:35:43.770Z,97951.78
2019-06-01T17:38:12.856Z,97950.06
2019-06-01T17:40:43.361Z,97950.37
2019-06-01T17:43:13.397Z,97947.77
2019-06-01T17:45:44.758Z,97948.47
2019-06-01T17:48:25.856Z,97948.48
2019-06-01T17:50:47.071Z,97945.55
2019-06-01T17:53:16.231Z,97945.48
2019-06-01T17:55:45.416Z,97941.96
2019-06-01T17:58:15.060Z,97938.20
2019-06-01T18:00:44.407Z,97936.03
2019-06-01T18:03:13.471Z,97932.48
2019-06-01T18:05:48.626Z,97935.68
2019-06-01T18:08:18.007Z,97936.77
2019-06-01T18:10:54.621Z,97939.89
2019-06-01T18:13:22.570Z,97937.36
2019-06-01T18:15:51.601Z,97931.85
2019-06-01T18:18:20.556Z,97934.09
2019-06-01T18:20:49.628Z,97936.63
2019-06-01T18:23:24.937Z,97930.50
2019-06-01T18:25:54.227Z,97927.94
2019-06-01T18:28:23.186Z,97932.20
2019-06-01T18:30:52.644Z,97936.47
2019-06-01T18:33:21.920Z,97934.95
2019-06-01T18:35:51.271Z,97934.14
2019-06-01T18:38:20.241Z,97931.48
2019-06-01T18:40:49.236Z,97932.26
2019-06-01T18:43:20.909Z,97935.56
2019-06-01T18:45:50.623Z,97937.91
2019-06-01T18:48:21.046Z,97941.20
2019-06-01T18:50:57.249Z,97935.92
2019-06-01T18:53:28.369Z,97940.17
2019-06-01T18:55:57.417Z,97936.16
2019-06-01T18:58:29.119Z,97939.52
2019-06-01T19:00:59.126Z,97943.41
2019-06-01T19:03:28.167Z,97946.31
2019-06-01T19:05:59.365Z,97947.00
2019-06-01T19:08:28.191Z,97948.36
2019-06-01T19:10:57.598Z,97954.11
2019-06-01T19:13:26.454Z,97948.23
2019-06-01T19:15:57.018Z,97949.97
2019-06-01T19:18:26.179Z,97949.36
2019-06-01T19:21:02.391Z,97953.84
2019-06-01T19:23:32.399Z,97955.05
2019-06-01T19:26:09.137Z,97948.09
2019-06-01T19:28:34.667Z,97952.00
2019-06-01T19:31:03.805Z,97955.58
2019-06-01T19:33:33.817Z,97962.30
2019-06-01T19:36:02.936Z,97949.86
2019-06-01T19:38:32.001Z,97965.41
2019-06-01T19:41:01.074Z,97965.60
2019-06-01T19:43:30.173Z,97963.63
2019-06-01T19:45:59.487Z,97966.48
2019-06-01T19:48:35.777Z,97971.30
2019-06-01T19:51:05.859Z,97970.35
2019-06-01T19:53:35.071Z,97970.70
2019-06-01T19:56:05.521Z,97966.87
2019-06-01T19:58:34.534Z,97970.06
2019-06-01T20:01:03.661Z,97971.73
2019-06-01T20:03:32.783Z,97967.59
2019-06-01T20:06:03.885Z,97966.72
2019-06-01T20:08:35.280Z,97966.86
2019-06-01T20:11:05.230Z,97976.05
2019-06-01T20:13:34.339Z,97974.35
2019-06-01T20:16:03.494Z,97976.99
2019-06-01T20:18:34.874Z,97970.49
2019-06-01T20:21:09.057Z,97982.63
2019-06-01T20:23:46.059Z,97981.92
2019-06-01T20:26:17.589Z,97978.57
2019-06-01T20:28:47.724Z,97979.06
2019-06-01T20:31:17.946Z,97982.21
2019-06-01T20:33:48.211Z,97982.67
2019-06-01T20:36:18.088Z,97985.11
2019-06-01T20:38:47.532Z,97986.58
2019-06-01T20:41:18.543Z,97984.70
2019-06-01T20:43:51.097Z,97982.69
2019-06-01T20:46:21.102Z,97997.01
2019-06-01T20:48:50.342Z,97987.31
2019-06-01T20:51:21.385Z,97988.63
2019-06-01T20:53:50.827Z,97992.27
2019-06-01T20:56:21.463Z,97989.05
2019-06-01T20:58:50.676Z,97994.16
2019-06-01T21:01:27.832Z,97992.47
2019-06-01T21:03:57.880Z,97997.09
2019-06-01T21:06:35.123Z,97997.91
2019-06-01T21:09:07.478Z,97993.21
2019-06-01T21:11:38.649Z,97997.98
2019-06-01T21:14:08.751Z,97993.48
2019-06-01T21:16:38.076Z,98002.59
2019-06-01T21:19:09.706Z,98001.24
2019-06-01T21:21:38.825Z,97999.83
2019-06-01T21:24:10.962Z,97999.80
2019-06-01T21:26:40.407Z,98004.61
2019-06-01T21:29:09.723Z,98005.71
2019-06-01T21:31:40.891Z,98006.47
2019-06-01T21:34:12.045Z,98015.74
2019-06-01T21:36:41.997Z,98012.54
2019-06-01T21:39:11.158Z,98011.67
2019-06-01T21:41:42.970Z,98012.51
2019-06-01T21:44:12.926Z,98007.57
2019-06-01T21:46:49.925Z,98018.31
2019-06-01T21:49:20.496Z,98010.45
2019-06-01T21:51:53.263Z,98008.92
2019-06-01T21:54:24.667Z,98015.09
2019-06-01T21:56:56.797Z,98016.30
2019-06-01T21:59:27.762Z,98016.41
2019-06-01T22:02:09.338Z,98015.73
2019-06-01T22:04:38.269Z,98014.34
2019-06-01T22:07:25.697Z,98012.00
2019-06-01T22:09:55.993Z,98010.61
2019-06-01T22:12:25.754Z,98007.08
2019-06-01T22:14:54.995Z,98005.19
2019-06-01T22:17:27.898Z,98010.11
2019-06-01T22:19:59.575Z,98006.69
2019-06-01T22:22:28.423Z,98011.95
2019-06-01T22:24:57.278Z,98013.38
2019-06-01T22:27:26.428Z,98014.45
2019-06-01T22:29:55.349Z,98010.44
2019-06-01T22:32:26.526Z,98004.39
2019-06-01T22:34:54.836Z,98009.61
2019-06-01T22:37:23.861Z,98009.78
2019-06-01T22:39:52.665Z,98001.49
2019-06-01T22:42:24.797Z,98000.26
2019-06-01T22:44:53.737Z,98005.52
2019-06-01T22:47:22.706Z,98005.03
2019-06-01T22:49:53.663Z,98004.05
2019-06-01T22:52:22.976Z,98006.14
2019-06-01T22:54:52.059Z,97998.67
2019-06-01T22:57:24.288Z,97998.48
2019-06-01T22:59:53.317Z,98000.73
2019-06-01T23:02:25.699Z,98000.25
2019-06-01T23:04:54.608Z,98001.58
2019-06-01T23:07:23.573Z,98000.17
2019-06-01T23:09:52.444Z,97995.17
2019-06-01T23:12:21.297Z,97992.09
2019-06-01T23:14:50.461Z,97992.17
2019-06-01T23:17:19.360Z,97991.98
2019-06-01T23:19:48.276Z,97993.84
2019-06-01T23:22:17.216Z,97989.47
2019-06-01T23:24:46.064Z,97994.06
2019-06-01T23:27:15.033Z,97981.25
2019-06-01T23:29:44.210Z,97984.73
2019-06-01T23:32:13.085Z,97990.44
2019-06-01T23:34:42.237Z,97983.76
2019-06-01T23:37:11.164Z,97986.67
2019-06-01T23:39:40.111Z,97988.78
2019-06-01T23:42:09.110Z,97990.05
2019-06-01T23:44:38.041Z,97985.85
2019-06-01T23:47:10.895Z,97984.60
2019-06-01T23:49:39.825Z,97986.55
2019-06-01T23:52:08.752Z,97984.55
2019-06-01T23:54:37.719Z,97979.52
2019-06-01T23:57:06.668Z,97972.34
2019-06-01T23:59:35.742Z,97980.20
